sensor_id;sensor_type;location;lat;lon;timestamp;P1;durP1;ratioP1;P2;durP2;ratioP2
17844;SDS011;9047;53.486;10.218;2023-04-25T00:00:35;7.45;;;4.05;;
17844;SDS011;9047;53.486;10.218;2023-04-25T00:03:06;8.38;;;4.20;;
17844;SDS011;9047;53.486;10.218;2023-04-25T00:05:35;7.43;;;4.35;;
17844;SDS011;9047;53.486;10.218;2023-04-25T00:08:22;6.93;;;3.78;;
17844;SDS011;9047;53.486;10.218;2023-04-25T00:11:02;7.07;;;4.05;;
17844;SDS011;9047;53.486;10.218;2023-04-25T00:13:36;8.05;;;3.78;;
17844;SDS011;9047;53.486;10.218;2023-04-25T00:16:07;8.38;;;4.00;;
17844;SDS011;9047;53.486;10.218;2023-04-25T00:18:41;9.82;;;4.28;;
17844;SDS011;9047;53.486;10.218;2023-04-25T00:21:14;8.30;;;4.03;;
17844;SDS011;9047;53.486;10.218;2023-04-25T00:23:46;8.48;;;4.03;;
17844;SDS011;9047;53.486;10.218;2023-04-25T00:26:17;6.75;;;3.92;;
17844;SDS011;9047;53.486;10.218;2023-04-25T00:28:49;8.82;;;4.47;;
17844;SDS011;9047;53.486;10.218;2023-04-25T00:31:17;8.75;;;4.10;;
17844;SDS011;9047;53.486;10.218;2023-04-25T00:36:58;7.47;;;4.68;;
17844;SDS011;9047;53.486;10.218;2023-04-25T00:39:27;14.00;;;5.10;;
17844;SDS011;9047;53.486;10.218;2023-04-25T00:41:59;11.38;;;5.40;;
17844;SDS011;9047;53.486;10.218;2023-04-25T00:44:31;11.57;;;4.85;;
17844;SDS011;9047;53.486;10.218;2023-04-25T00:47:01;14.05;;;5.22;;
17844;SDS011;9047;53.486;10.218;2023-04-25T00:49:36;12.52;;;4.60;;
17844;SDS011;9047;53.486;10.218;2023-04-25T00:52:07;13.55;;;5.18;;
17844;SDS011;9047;53.486;10.218;2023-04-25T00:54:37;17.73;;;6.03;;
17844;SDS011;9047;53.486;10.218;2023-04-25T00:57:09;15.98;;;5.05;;
17844;SDS011;9047;53.486;10.218;2023-04-25T00:59:41;21.77;;;5.38;;
17844;SDS011;9047;53.486;10.218;2023-04-25T01:02:12;19.35;;;5.03;;
17844;SDS011;9047;53.486;10.218;2023-04-25T01:04:40;18.95;;;4.45;;
17844;SDS011;9047;53.486;10.218;2023-04-25T01:07:13;19.55;;;4.57;;
17844;SDS011;9047;53.486;10.218;2023-04-25T01:09:44;20.05;;;3.83;;
17844;SDS011;9047;53.486;10.218;2023-04-25T01:12:13;20.08;;;4.13;;
17844;SDS011;9047;53.486;10.218;2023-04-25T01:14:42;18.25;;;4.22;;
17844;SDS011;9047;53.486;10.218;2023-04-25T01:17:24;24.05;;;4.20;;
17844;SDS011;9047;53.486;10.218;2023-04-25T01:19:56;19.98;;;4.20;;
17844;SDS011;9047;53.486;10.218;2023-04-25T01:22:32;21.38;;;3.92;;
17844;SDS011;9047;53.486;10.218;2023-04-25T01:25:01;22.17;;;4.18;;
17844;SDS011;9047;53.486;10.218;2023-04-25T01:27:29;21.67;;;4.43;;
17844;SDS011;9047;53.486;10.218;2023-04-25T01:30:09;26.23;;;4.43;;
17844;SDS011;9047;53.486;10.218;2023-04-25T01:32:37;23.85;;;4.40;;
17844;SDS011;9047;53.486;10.218;2023-04-25T01:35:23;18.17;;;3.97;;
17844;SDS011;9047;53.486;10.218;2023-04-25T01:38:11;27.80;;;4.38;;
17844;SDS011;9047;53.486;10.218;2023-04-25T01:40:43;21.80;;;4.82;;
17844;SDS011;9047;53.486;10.218;2023-04-25T01:43:23;21.23;;;4.68;;
17844;SDS011;9047;53.486;10.218;2023-04-25T01:45:53;27.63;;;4.68;;
17844;SDS011;9047;53.486;10.218;2023-04-25T01:48:22;27.85;;;4.10;;
17844;SDS011;9047;53.486;10.218;2023-04-25T01:51:06;24.73;;;5.00;;
17844;SDS011;9047;53.486;10.218;2023-04-25T01:53:41;26.95;;;5.03;;
17844;SDS011;9047;53.486;10.218;2023-04-25T01:56:23;20.90;;;4.60;;
17844;SDS011;9047;53.486;10.218;2023-04-25T01:58:51;21.52;;;4.03;;
17844;SDS011;9047;53.486;10.218;2023-04-25T02:01:20;26.50;;;4.78;;
17844;SDS011;9047;53.486;10.218;2023-04-25T02:03:49;27.27;;;4.72;;
17844;SDS011;9047;53.486;10.218;2023-04-25T02:06:24;25.10;;;6.20;;
17844;SDS011;9047;53.486;10.218;2023-04-25T02:08:57;26.73;;;4.88;;
17844;SDS011;9047;53.486;10.218;2023-04-25T02:11:43;29.65;;;4.45;;
17844;SDS011;9047;53.486;10.218;2023-04-25T02:14:15;23.70;;;3.88;;
17844;SDS011;9047;53.486;10.218;2023-04-25T02:16:57;23.50;;;4.55;;
17844;SDS011;9047;53.486;10.218;2023-04-25T02:19:32;26.00;;;4.72;;
17844;SDS011;9047;53.486;10.218;2023-04-25T02:22:05;19.85;;;4.95;;
17844;SDS011;9047;53.486;10.218;2023-04-25T02:24:40;19.35;;;3.90;;
17844;SDS011;9047;53.486;10.218;2023-04-25T02:27:08;17.30;;;3.80;;
17844;SDS011;9047;53.486;10.218;2023-04-25T02:29:40;29.02;;;4.90;;
17844;SDS011;9047;53.486;10.218;2023-04-25T02:32:09;21.92;;;4.18;;
17844;SDS011;9047;53.486;10.218;2023-04-25T02:34:40;17.92;;;3.80;;
17844;SDS011;9047;53.486;10.218;2023-04-25T02:37:23;17.70;;;4.13;;
17844;SDS011;9047;53.486;10.218;2023-04-25T02:40:12;18.42;;;3.53;;
17844;SDS011;9047;53.486;10.218;2023-04-25T02:42:41;23.10;;;4.20;;
17844;SDS011;9047;53.486;10.218;2023-04-25T02:45:15;22.45;;;4.50;;
17844;SDS011;9047;53.486;10.218;2023-04-25T02:47:53;23.55;;;4.47;;
17844;SDS011;9047;53.486;10.218;2023-04-25T02:50:23;18.35;;;4.10;;
17844;SDS011;9047;53.486;10.218;2023-04-25T02:52:57;19.83;;;4.13;;
17844;SDS011;9047;53.486;10.218;2023-04-25T02:55:31;25.35;;;4.03;;
17844;SDS011;9047;53.486;10.218;2023-04-25T02:57:59;21.23;;;4.03;;
17844;SDS011;9047;53.486;10.218;2023-04-25T03:00:32;24.08;;;4.25;;
17844;SDS011;9047;53.486;10.218;2023-04-25T03:03:17;21.17;;;4.40;;
17844;SDS011;9047;53.486;10.218;2023-04-25T03:06:00;21.65;;;3.70;;
17844;SDS011;9047;53.486;10.218;2023-04-25T03:08:29;22.95;;;4.47;;
17844;SDS011;9047;53.486;10.218;2023-04-25T03:11:04;21.30;;;4.18;;
17844;SDS011;9047;53.486;10.218;2023-04-25T03:13:35;24.15;;;3.80;;
17844;SDS011;9047;53.486;10.218;2023-04-25T03:16:05;21.25;;;4.47;;
17844;SDS011;9047;53.486;10.218;2023-04-25T03:18:33;17.00;;;4.05;;
17844;SDS011;9047;53.486;10.218;2023-04-25T03:21:03;21.10;;;3.85;;
17844;SDS011;9047;53.486;10.218;2023-04-25T03:23:38;20.02;;;3.53;;
17844;SDS011;9047;53.486;10.218;2023-04-25T03:29:08;18.13;;;3.72;;
17844;SDS011;9047;53.486;10.218;2023-04-25T03:31:38;21.08;;;3.47;;
17844;SDS011;9047;53.486;10.218;2023-04-25T03:34:07;21.25;;;3.97;;
17844;SDS011;9047;53.486;10.218;2023-04-25T03:36:36;20.02;;;3.75;;
17844;SDS011;9047;53.486;10.218;2023-04-25T03:39:08;15.35;;;3.35;;
17844;SDS011;9047;53.486;10.218;2023-04-25T03:41:40;21.25;;;3.80;;
17844;SDS011;9047;53.486;10.218;2023-04-25T03:44:12;19.75;;;3.70;;
17844;SDS011;9047;53.486;10.218;2023-04-25T03:46:44;20.70;;;3.60;;
17844;SDS011;9047;53.486;10.218;2023-04-25T03:49:14;22.67;;;3.70;;
17844;SDS011;9047;53.486;10.218;2023-04-25T03:51:47;28.33;;;4.70;;
17844;SDS011;9047;53.486;10.218;2023-04-25T03:54:18;16.50;;;3.90;;
17844;SDS011;9047;53.486;10.218;2023-04-25T03:56:54;13.38;;;3.30;;
17844;SDS011;9047;53.486;10.218;2023-04-25T03:59:24;18.95;;;4.20;;
17844;SDS011;9047;53.486;10.218;2023-04-25T04:02:01;27.58;;;4.32;;
17844;SDS011;9047;53.486;10.218;2023-04-25T04:04:38;18.13;;;3.85;;
17844;SDS011;9047;53.486;10.218;2023-04-25T04:07:23;26.45;;;4.15;;
17844;SDS011;9047;53.486;10.218;2023-04-25T04:09:58;17.00;;;3.53;;
17844;SDS011;9047;53.486;10.218;2023-04-25T04:12:43;20.10;;;4.13;;
17844;SDS011;9047;53.486;10.218;2023-04-25T04:15:12;17.02;;;3.45;;
17844;SDS011;9047;53.486;10.218;2023-04-25T04:17:40;16.38;;;3.60;;
17844;SDS011;9047;53.486;10.218;2023-04-25T04:20:10;19.85;;;3.83;;
17844;SDS011;9047;53.486;10.218;2023-04-25T04:22:41;17.00;;;3.47;;
17844;SDS011;9047;53.486;10.218;2023-04-25T04:25:20;21.60;;;3.92;;
17844;SDS011;9047;53.486;10.218;2023-04-25T04:27:54;17.63;;;3.22;;
17844;SDS011;9047;53.486;10.218;2023-04-25T04:30:28;14.93;;;2.90;;
17844;SDS011;9047;53.486;10.218;2023-04-25T04:33:19;21.27;;;3.58;;
17844;SDS011;9047;53.486;10.218;2023-04-25T04:35:58;22.88;;;3.67;;
17844;SDS011;9047;53.486;10.218;2023-04-25T04:38:52;18.33;;;3.38;;
17844;SDS011;9047;53.486;10.218;2023-04-25T04:41:19;16.98;;;3.30;;
17844;SDS011;9047;53.486;10.218;2023-04-25T04:43:49;19.55;;;3.30;;
17844;SDS011;9047;53.486;10.218;2023-04-25T04:46:18;16.25;;;3.28;;
17844;SDS011;9047;53.486;10.218;2023-04-25T04:48:49;21.75;;;3.22;;
17844;SDS011;9047;53.486;10.218;2023-04-25T04:51:18;20.08;;;3.47;;
17844;SDS011;9047;53.486;10.218;2023-04-25T04:53:47;27.00;;;3.45;;
17844;SDS011;9047;53.486;10.218;2023-04-25T04:56:21;17.90;;;3.38;;
17844;SDS011;9047;53.486;10.218;2023-04-25T04:59:11;15.65;;;2.67;;
17844;SDS011;9047;53.486;10.218;2023-04-25T05:01:41;15.55;;;2.90;;
17844;SDS011;9047;53.486;10.218;2023-04-25T05:04:11;12.48;;;3.17;;
17844;SDS011;9047;53.486;10.218;2023-04-25T05:06:39;18.38;;;3.88;;
17844;SDS011;9047;53.486;10.218;2023-04-25T05:09:06;19.63;;;3.95;;
17844;SDS011;9047;53.486;10.218;2023-04-25T05:11:43;15.65;;;3.15;;
17844;SDS011;9047;53.486;10.218;2023-04-25T05:14:13;17.98;;;3.40;;
17844;SDS011;9047;53.486;10.218;2023-04-25T05:16:42;16.50;;;3.33;;
17844;SDS011;9047;53.486;10.218;2023-04-25T05:19:09;12.38;;;2.90;;
17844;SDS011;9047;53.486;10.218;2023-04-25T05:21:37;16.88;;;2.90;;
17844;SDS011;9047;53.486;10.218;2023-04-25T05:24:04;18.08;;;3.38;;
17844;SDS011;9047;53.486;10.218;2023-04-25T05:26:40;22.80;;;4.03;;
17844;SDS011;9047;53.486;10.218;2023-04-25T05:29:10;19.67;;;3.55;;
17844;SDS011;9047;53.486;10.218;2023-04-25T05:31:49;19.65;;;3.33;;
17844;SDS011;9047;53.486;10.218;2023-04-25T05:34:26;23.83;;;4.03;;
17844;SDS011;9047;53.486;10.218;2023-04-25T05:36:55;18.25;;;3.47;;
17844;SDS011;9047;53.486;10.218;2023-04-25T05:39:24;21.67;;;3.78;;
17844;SDS011;9047;53.486;10.218;2023-04-25T05:42:08;13.07;;;3.05;;
17844;SDS011;9047;53.486;10.218;2023-04-25T05:44:46;17.88;;;3.08;;
17844;SDS011;9047;53.486;10.218;2023-04-25T05:47:18;18.05;;;3.58;;
17844;SDS011;9047;53.486;10.218;2023-04-25T05:49:48;17.23;;;3.70;;
17844;SDS011;9047;53.486;10.218;2023-04-25T05:52:17;29.50;;;4.25;;
17844;SDS011;9047;53.486;10.218;2023-04-25T05:54:46;15.07;;;3.30;;
17844;SDS011;9047;53.486;10.218;2023-04-25T05:57:19;23.65;;;3.80;;
17844;SDS011;9047;53.486;10.218;2023-04-25T05:59:55;20.60;;;3.75;;
17844;SDS011;9047;53.486;10.218;2023-04-25T06:02:26;23.20;;;3.50;;
17844;SDS011;9047;53.486;10.218;2023-04-25T06:04:55;20.88;;;4.28;;
17844;SDS011;9047;53.486;10.218;2023-04-25T06:07:29;23.52;;;4.07;;
17844;SDS011;9047;53.486;10.218;2023-04-25T06:10:14;32.78;;;4.57;;
17844;SDS011;9047;53.486;10.218;2023-04-25T06:12:47;24.75;;;3.90;;
17844;SDS011;9047;53.486;10.218;2023-04-25T06:15:40;40.13;;;5.70;;
17844;SDS011;9047;53.486;10.218;2023-04-25T06:18:34;26.50;;;4.30;;
17844;SDS011;9047;53.486;10.218;2023-04-25T06:21:13;30.60;;;5.05;;
17844;SDS011;9047;53.486;10.218;2023-04-25T06:23:48;14.88;;;3.33;;
17844;SDS011;9047;53.486;10.218;2023-04-25T06:26:16;12.40;;;3.08;;
17844;SDS011;9047;53.486;10.218;2023-04-25T06:28:47;11.52;;;2.63;;
17844;SDS011;9047;53.486;10.218;2023-04-25T06:31:24;9.35;;;2.50;;
17844;SDS011;9047;53.486;10.218;2023-04-25T06:33:51;14.27;;;2.88;;
17844;SDS011;9047;53.486;10.218;2023-04-25T06:36:32;12.98;;;3.05;;
17844;SDS011;9047;53.486;10.218;2023-04-25T06:39:06;14.18;;;3.53;;
17844;SDS011;9047;53.486;10.218;2023-04-25T06:41:39;11.85;;;2.53;;
17844;SDS011;9047;53.486;10.218;2023-04-25T06:44:12;17.15;;;2.95;;
17844;SDS011;9047;53.486;10.218;2023-04-25T06:46:44;12.45;;;3.00;;
17844;SDS011;9047;53.486;10.218;2023-04-25T06:49:13;11.73;;;2.90;;
17844;SDS011;9047;53.486;10.218;2023-04-25T06:51:42;11.10;;;2.95;;
17844;SDS011;9047;53.486;10.218;2023-04-25T06:54:09;14.45;;;3.10;;
17844;SDS011;9047;53.486;10.218;2023-04-25T06:56:40;15.88;;;3.10;;
17844;SDS011;9047;53.486;10.218;2023-04-25T06:59:16;9.65;;;2.97;;
17844;SDS011;9047;53.486;10.218;2023-04-25T07:01:47;15.13;;;2.97;;
17844;SDS011;9047;53.486;10.218;2023-04-25T07:04:16;12.75;;;3.10;;
17844;SDS011;9047;53.486;10.218;2023-04-25T07:06:47;13.05;;;3.05;;
17844;SDS011;9047;53.486;10.218;2023-04-25T07:09:15;9.68;;;2.85;;
17844;SDS011;9047;53.486;10.218;2023-04-25T07:11:53;16.25;;;2.72;;
17844;SDS011;9047;53.486;10.218;2023-04-25T07:14:25;13.35;;;2.78;;
17844;SDS011;9047;53.486;10.218;2023-04-25T07:16:53;15.52;;;2.40;;
17844;SDS011;9047;53.486;10.218;2023-04-25T07:19:22;16.15;;;2.92;;
17844;SDS011;9047;53.486;10.218;2023-04-25T07:21:54;14.80;;;2.50;;
17844;SDS011;9047;53.486;10.218;2023-04-25T07:24:23;13.13;;;2.58;;
17844;SDS011;9047;53.486;10.218;2023-04-25T07:26:50;12.40;;;2.60;;
17844;SDS011;9047;53.486;10.218;2023-04-25T07:29:20;13.77;;;2.78;;
17844;SDS011;9047;53.486;10.218;2023-04-25T07:31:48;11.80;;;2.42;;
17844;SDS011;9047;53.486;10.218;2023-04-25T07:34:21;12.93;;;2.47;;
17844;SDS011;9047;53.486;10.218;2023-04-25T07:36:50;10.25;;;2.60;;
17844;SDS011;9047;53.486;10.218;2023-04-25T07:39:17;13.80;;;2.55;;
17844;SDS011;9047;53.486;10.218;2023-04-25T07:41:45;13.25;;;2.50;;
17844;SDS011;9047;53.486;10.218;2023-04-25T07:44:13;10.07;;;2.58;;
17844;SDS011;9047;53.486;10.218;2023-04-25T07:46:44;12.77;;;2.38;;
17844;SDS011;9047;53.486;10.218;2023-04-25T07:49:30;9.80;;;2.35;;
17844;SDS011;9047;53.486;10.218;2023-04-25T07:52:02;14.00;;;2.20;;
17844;SDS011;9047;53.486;10.218;2023-04-25T07:54:36;13.48;;;2.70;;
17844;SDS011;9047;53.486;10.218;2023-04-25T07:57:04;10.85;;;2.53;;
17844;SDS011;9047;53.486;10.218;2023-04-25T07:59:31;8.52;;;2.38;;
17844;SDS011;9047;53.486;10.218;2023-04-25T08:02:00;13.25;;;2.42;;
17844;SDS011;9047;53.486;10.218;2023-04-25T08:04:28;13.52;;;2.65;;
17844;SDS011;9047;53.486;10.218;2023-04-25T08:07:01;14.15;;;2.80;;
17844;SDS011;9047;53.486;10.218;2023-04-25T08:09:32;12.57;;;2.40;;
17844;SDS011;9047;53.486;10.218;2023-04-25T08:12:04;12.43;;;2.40;;
17844;SDS011;9047;53.486;10.218;2023-04-25T08:14:34;12.77;;;2.33;;
17844;SDS011;9047;53.486;10.218;2023-04-25T08:17:09;9.55;;;2.33;;
17844;SDS011;9047;53.486;10.218;2023-04-25T08:19:38;10.07;;;2.30;;
17844;SDS011;9047;53.486;10.218;2023-04-25T08:22:06;8.70;;;2.40;;
17844;SDS011;9047;53.486;10.218;2023-04-25T08:24:35;10.05;;;2.00;;
17844;SDS011;9047;53.486;10.218;2023-04-25T08:27:05;10.00;;;2.30;;
17844;SDS011;9047;53.486;10.218;2023-04-25T08:29:34;7.38;;;2.13;;
17844;SDS011;9047;53.486;10.218;2023-04-25T08:32:01;10.02;;;1.83;;
17844;SDS011;9047;53.486;10.218;2023-04-25T08:34:28;9.60;;;1.80;;
17844;SDS011;9047;53.486;10.218;2023-04-25T08:37:02;8.98;;;2.00;;
17844;SDS011;9047;53.486;10.218;2023-04-25T08:39:33;11.50;;;2.35;;
17844;SDS011;9047;53.486;10.218;2023-04-25T08:42:16;11.85;;;1.80;;
17844;SDS011;9047;53.486;10.218;2023-04-25T08:45:15;9.25;;;1.80;;
17844;SDS011;9047;53.486;10.218;2023-04-25T08:47:53;7.03;;;1.83;;
17844;SDS011;9047;53.486;10.218;2023-04-25T08:50:31;8.95;;;1.90;;
17844;SDS011;9047;53.486;10.218;2023-04-25T08:53:06;8.02;;;1.67;;
17844;SDS011;9047;53.486;10.218;2023-04-25T08:55:38;11.32;;;1.92;;
17844;SDS011;9047;53.486;10.218;2023-04-25T08:58:09;7.15;;;1.77;;
17844;SDS011;9047;53.486;10.218;2023-04-25T09:00:49;10.80;;;2.03;;
17844;SDS011;9047;53.486;10.218;2023-04-25T09:03:21;7.65;;;1.75;;
17844;SDS011;9047;53.486;10.218;2023-04-25T09:05:54;15.20;;;2.33;;
17844;SDS011;9047;53.486;10.218;2023-04-25T09:08:44;6.38;;;1.80;;
17844;SDS011;9047;53.486;10.218;2023-04-25T09:11:16;9.25;;;1.63;;
17844;SDS011;9047;53.486;10.218;2023-04-25T09:14:16;8.77;;;1.90;;
17844;SDS011;9047;53.486;10.218;2023-04-25T09:19:49;10.88;;;2.00;;
17844;SDS011;9047;53.486;10.218;2023-04-25T09:25:47;6.25;;;1.67;;
17844;SDS011;9047;53.486;10.218;2023-04-25T09:28:26;9.02;;;2.08;;
17844;SDS011;9047;53.486;10.218;2023-04-25T09:31:00;4.57;;;1.20;;
17844;SDS011;9047;53.486;10.218;2023-04-25T09:33:30;7.80;;;1.70;;
17844;SDS011;9047;53.486;10.218;2023-04-25T09:36:03;6.03;;;1.50;;
17844;SDS011;9047;53.486;10.218;2023-04-25T09:38:44;11.95;;;1.58;;
17844;SDS011;9047;53.486;10.218;2023-04-25T09:41:25;7.32;;;1.90;;
17844;SDS011;9047;53.486;10.218;2023-04-25T09:43:58;4.43;;;1.38;;
17844;SDS011;9047;53.486;10.218;2023-04-25T09:46:41;14.43;;;2.50;;
17844;SDS011;9047;53.486;10.218;2023-04-25T09:49:11;7.25;;;1.40;;
17844;SDS011;9047;53.486;10.218;2023-04-25T09:51:42;9.70;;;1.80;;
17844;SDS011;9047;53.486;10.218;2023-04-25T09:54:28;6.30;;;1.60;;
17844;SDS011;9047;53.486;10.218;2023-04-25T09:57:01;8.07;;;1.50;;
17844;SDS011;9047;53.486;10.218;2023-04-25T09:59:36;9.52;;;1.80;;
17844;SDS011;9047;53.486;10.218;2023-04-25T10:02:20;9.63;;;2.45;;
17844;SDS011;9047;53.486;10.218;2023-04-25T10:04:49;7.43;;;1.77;;
17844;SDS011;9047;53.486;10.218;2023-04-25T10:07:25;7.28;;;1.92;;
17844;SDS011;9047;53.486;10.218;2023-04-25T10:10:03;10.32;;;2.33;;
17844;SDS011;9047;53.486;10.218;2023-04-25T10:12:51;11.82;;;1.88;;
17844;SDS011;9047;53.486;10.218;2023-04-25T10:15:19;7.53;;;1.60;;
17844;SDS011;9047;53.486;10.218;2023-04-25T10:17:52;8.68;;;1.80;;
17844;SDS011;9047;53.486;10.218;2023-04-25T10:20:38;12.40;;;2.08;;
17844;SDS011;9047;53.486;10.218;2023-04-25T10:23:13;8.23;;;1.50;;
17844;SDS011;9047;53.486;10.218;2023-04-25T10:25:47;12.00;;;1.98;;
17844;SDS011;9047;53.486;10.218;2023-04-25T10:28:20;8.05;;;1.88;;
17844;SDS011;9047;53.486;10.218;2023-04-25T10:30:58;14.00;;;2.50;;
17844;SDS011;9047;53.486;10.218;2023-04-25T10:33:30;6.68;;;1.58;;
17844;SDS011;9047;53.486;10.218;2023-04-25T10:36:08;7.28;;;1.98;;
17844;SDS011;9047;53.486;10.218;2023-04-25T10:38:42;8.30;;;2.17;;
17844;SDS011;9047;53.486;10.218;2023-04-25T10:41:12;7.03;;;1.50;;
17844;SDS011;9047;53.486;10.218;2023-04-25T10:46:37;4.38;;;1.10;;
17844;SDS011;9047;53.486;10.218;2023-04-25T10:49:14;8.02;;;1.67;;
17844;SDS011;9047;53.486;10.218;2023-04-25T10:52:13;6.68;;;1.55;;
17844;SDS011;9047;53.486;10.218;2023-04-25T10:54:57;8.40;;;1.60;;
17844;SDS011;9047;53.486;10.218;2023-04-25T10:57:31;5.25;;;1.30;;
17844;SDS011;9047;53.486;10.218;2023-04-25T11:00:08;9.93;;;1.63;;
17844;SDS011;9047;53.486;10.218;2023-04-25T11:02:38;7.80;;;1.42;;
17844;SDS011;9047;53.486;10.218;2023-04-25T11:05:22;6.80;;;1.65;;
17844;SDS011;9047;53.486;10.218;2023-04-25T11:08:06;11.98;;;1.60;;
17844;SDS011;9047;53.486;10.218;2023-04-25T11:10:47;8.70;;;2.03;;
17844;SDS011;9047;53.486;10.218;2023-04-25T11:13:28;7.22;;;1.52;;
17844;SDS011;9047;53.486;10.218;2023-04-25T11:16:05;11.82;;;1.70;;
17844;SDS011;9047;53.486;10.218;2023-04-25T11:18:56;8.23;;;1.50;;
17844;SDS011;9047;53.486;10.218;2023-04-25T11:21:38;6.43;;;1.25;;
17844;SDS011;9047;53.486;10.218;2023-04-25T11:24:26;3.97;;;1.30;;
17844;SDS011;9047;53.486;10.218;2023-04-25T11:26:55;4.78;;;1.30;;
17844;SDS011;9047;53.486;10.218;2023-04-25T11:29:32;8.93;;;1.73;;
17844;SDS011;9047;53.486;10.218;2023-04-25T11:32:08;9.70;;;1.85;;
17844;SDS011;9047;53.486;10.218;2023-04-25T11:34:42;8.38;;;1.38;;
17844;SDS011;9047;53.486;10.218;2023-04-25T11:37:11;7.68;;;1.67;;
17844;SDS011;9047;53.486;10.218;2023-04-25T11:39:42;7.35;;;1.42;;
17844;SDS011;9047;53.486;10.218;2023-04-25T11:42:12;7.18;;;1.63;;
17844;SDS011;9047;53.486;10.218;2023-04-25T11:44:42;5.82;;;1.40;;
17844;SDS011;9047;53.486;10.218;2023-04-25T11:47:17;5.05;;;1.65;;
17844;SDS011;9047;53.486;10.218;2023-04-25T11:49:48;5.50;;;1.20;;
17844;SDS011;9047;53.486;10.218;2023-04-25T11:52:19;6.43;;;1.20;;
17844;SDS011;9047;53.486;10.218;2023-04-25T11:54:54;7.05;;;1.52;;
17844;SDS011;9047;53.486;10.218;2023-04-25T11:57:23;5.45;;;1.45;;
17844;SDS011;9047;53.486;10.218;2023-04-25T12:00:10;4.55;;;1.40;;
17844;SDS011;9047;53.486;10.218;2023-04-25T12:02:45;6.00;;;1.08;;
17844;SDS011;9047;53.486;10.218;2023-04-25T12:05:19;7.03;;;1.20;;
17844;SDS011;9047;53.486;10.218;2023-04-25T12:07:54;4.70;;;1.10;;
17844;SDS011;9047;53.486;10.218;2023-04-25T12:11:04;3.90;;;0.90;;
17844;SDS011;9047;53.486;10.218;2023-04-25T12:13:34;3.90;;;1.17;;
17844;SDS011;9047;53.486;10.218;2023-04-25T12:16:04;5.68;;;1.00;;
17844;SDS011;9047;53.486;10.218;2023-04-25T12:18:37;5.32;;;1.27;;
17844;SDS011;9047;53.486;10.218;2023-04-25T12:21:10;7.18;;;1.30;;
17844;SDS011;9047;53.486;10.218;2023-04-25T12:23:46;8.25;;;1.20;;
17844;SDS011;9047;53.486;10.218;2023-04-25T12:26:18;4.78;;;1.58;;
17844;SDS011;9047;53.486;10.218;2023-04-25T12:28:48;8.48;;;1.60;;
17844;SDS011;9047;53.486;10.218;2023-04-25T12:31:17;7.15;;;1.60;;
17844;SDS011;9047;53.486;10.218;2023-04-25T12:33:52;8.05;;;1.38;;
17844;SDS011;9047;53.486;10.218;2023-04-25T12:36:26;7.47;;;1.40;;
17844;SDS011;9047;53.486;10.218;2023-04-25T12:38:58;5.97;;;1.58;;
17844;SDS011;9047;53.486;10.218;2023-04-25T12:41:41;8.82;;;1.55;;
17844;SDS011;9047;53.486;10.218;2023-04-25T12:44:08;9.82;;;1.60;;
17844;SDS011;9047;53.486;10.218;2023-04-25T12:46:38;9.05;;;1.60;;
17844;SDS011;9047;53.486;10.218;2023-04-25T12:49:15;6.55;;;1.30;;
17844;SDS011;9047;53.486;10.218;2023-04-25T12:51:42;12.90;;;1.73;;
17844;SDS011;9047;53.486;10.218;2023-04-25T12:54:11;6.28;;;1.20;;
17844;SDS011;9047;53.486;10.218;2023-04-25T12:56:45;6.40;;;1.40;;
17844;SDS011;9047;53.486;10.218;2023-04-25T12:59:18;6.38;;;1.52;;
17844;SDS011;9047;53.486;10.218;2023-04-25T13:01:49;8.30;;;1.75;;
17844;SDS011;9047;53.486;10.218;2023-04-25T13:04:25;5.72;;;1.85;;
17844;SDS011;9047;53.486;10.218;2023-04-25T13:06:54;5.82;;;1.35;;
17844;SDS011;9047;53.486;10.218;2023-04-25T13:09:28;11.10;;;1.65;;
17844;SDS011;9047;53.486;10.218;2023-04-25T13:11:57;6.25;;;1.30;;
17844;SDS011;9047;53.486;10.218;2023-04-25T13:14:30;6.85;;;1.60;;
17844;SDS011;9047;53.486;10.218;2023-04-25T13:17:03;7.18;;;1.63;;
17844;SDS011;9047;53.486;10.218;2023-04-25T13:22:37;13.30;;;1.65;;
17844;SDS011;9047;53.486;10.218;2023-04-25T13:25:05;6.75;;;1.55;;
17844;SDS011;9047;53.486;10.218;2023-04-25T13:27:36;8.18;;;1.70;;
17844;SDS011;9047;53.486;10.218;2023-04-25T13:30:10;9.93;;;1.52;;
17844;SDS011;9047;53.486;10.218;2023-04-25T13:32:45;8.13;;;1.70;;
17844;SDS011;9047;53.486;10.218;2023-04-25T13:35:39;8.95;;;1.85;;
17844;SDS011;9047;53.486;10.218;2023-04-25T13:38:14;6.20;;;1.30;;
17844;SDS011;9047;53.486;10.218;2023-04-25T13:40:45;8.45;;;1.38;;
17844;SDS011;9047;53.486;10.218;2023-04-25T13:43:22;6.72;;;1.67;;
17844;SDS011;9047;53.486;10.218;2023-04-25T13:46:04;6.18;;;1.40;;
17844;SDS011;9047;53.486;10.218;2023-04-25T13:48:33;6.50;;;1.65;;
17844;SDS011;9047;53.486;10.218;2023-04-25T13:51:15;4.97;;;1.60;;
17844;SDS011;9047;53.486;10.218;2023-04-25T13:53:46;6.32;;;1.52;;
17844;SDS011;9047;53.486;10.218;2023-04-25T13:56:23;7.38;;;1.75;;
17844;SDS011;9047;53.486;10.218;2023-04-25T13:58:59;8.07;;;1.80;;
17844;SDS011;9047;53.486;10.218;2023-04-25T14:01:28;8.07;;;1.73;;
17844;SDS011;9047;53.486;10.218;2023-04-25T14:04:04;6.63;;;1.70;;
17844;SDS011;9047;53.486;10.218;2023-04-25T14:06:39;11.15;;;2.30;;
17844;SDS011;9047;53.486;10.218;2023-04-25T14:09:08;6.07;;;1.52;;
17844;SDS011;9047;53.486;10.218;2023-04-25T14:11:40;4.90;;;1.58;;
17844;SDS011;9047;53.486;10.218;2023-04-25T14:14:12;3.75;;;1.60;;
17844;SDS011;9047;53.486;10.218;2023-04-25T14:16:43;6.97;;;1.85;;
17844;SDS011;9047;53.486;10.218;2023-04-25T14:19:27;4.80;;;1.67;;
17844;SDS011;9047;53.486;10.218;2023-04-25T14:22:05;4.95;;;1.75;;
17844;SDS011;9047;53.486;10.218;2023-04-25T14:24:48;5.45;;;1.60;;
17844;SDS011;9047;53.486;10.218;2023-04-25T14:27:23;7.68;;;1.65;;
17844;SDS011;9047;53.486;10.218;2023-04-25T14:29:51;6.50;;;2.00;;
17844;SDS011;9047;53.486;10.218;2023-04-25T14:32:32;6.65;;;1.90;;
17844;SDS011;9047;53.486;10.218;2023-04-25T14:35:20;5.93;;;1.80;;
17844;SDS011;9047;53.486;10.218;2023-04-25T14:38:10;9.70;;;2.17;;
17844;SDS011;9047;53.486;10.218;2023-04-25T14:40:58;9.90;;;2.03;;
17844;SDS011;9047;53.486;10.218;2023-04-25T14:43:45;12.65;;;4.85;;
17844;SDS011;9047;53.486;10.218;2023-04-25T14:46:17;6.50;;;2.00;;
17844;SDS011;9047;53.486;10.218;2023-04-25T14:49:07;8.32;;;2.30;;
17844;SDS011;9047;53.486;10.218;2023-04-25T14:51:44;9.50;;;2.45;;
17844;SDS011;9047;53.486;10.218;2023-04-25T14:54:22;10.82;;;1.90;;
17844;SDS011;9047;53.486;10.218;2023-04-25T14:56:51;7.63;;;1.70;;
17844;SDS011;9047;53.486;10.218;2023-04-25T14:59:22;8.55;;;1.50;;
17844;SDS011;9047;53.486;10.218;2023-04-25T15:01:52;6.25;;;1.55;;
17844;SDS011;9047;53.486;10.218;2023-04-25T15:04:28;5.85;;;1.60;;
17844;SDS011;9047;53.486;10.218;2023-04-25T15:06:59;6.60;;;1.90;;
17844;SDS011;9047;53.486;10.218;2023-04-25T15:16:09;8.20;;;1.60;;
17844;SDS011;9047;53.486;10.218;2023-04-25T15:18:55;8.63;;;2.20;;
17844;SDS011;9047;53.486;10.218;2023-04-25T15:21:30;5.07;;;1.55;;
17844;SDS011;9047;53.486;10.218;2023-04-25T15:24:07;5.32;;;1.33;;
17844;SDS011;9047;53.486;10.218;2023-04-25T15:26:50;6.32;;;1.40;;
17844;SDS011;9047;53.486;10.218;2023-04-25T15:32:24;7.88;;;1.65;;
17844;SDS011;9047;53.486;10.218;2023-04-25T15:35:02;7.75;;;1.45;;
17844;SDS011;9047;53.486;10.218;2023-04-25T15:37:51;10.00;;;1.52;;
17844;SDS011;9047;53.486;10.218;2023-04-25T15:40:37;7.90;;;1.90;;
17844;SDS011;9047;53.486;10.218;2023-04-25T15:43:06;11.57;;;2.13;;
17844;SDS011;9047;53.486;10.218;2023-04-25T15:48:41;7.25;;;1.75;;
17844;SDS011;9047;53.486;10.218;2023-04-25T15:51:09;11.13;;;1.95;;
17844;SDS011;9047;53.486;10.218;2023-04-25T15:53:56;9.82;;;2.00;;